Time;durP1;ratioP1;P1;durP2;ratioP2;P2;SDS_P1;SDS_P2;PMS_P1;PMS_P2;Temp;Humidity;BMP_temperature;BMP_pressure;BME280_temperature;BME280_humidity;BME280_pressure;Samples;Min_cycle;Max_cycle;Signal;HPM_P1;HPM_P2
2024/04/14 00:00:19;;;;;;;10.90;1.48;;;7.30;99.90;;;;;;6385083;22;20425;-89
2024/04/14 00:02:45;;;;;;;8.48;1.70;;;7.30;99.90;;;;;;6383673;22;20004;-90
2024/04/14 00:05:12;;;;;;;6.22;1.88;;;7.30;99.90;;;;;;6383490;22;20304;-91
2024/04/14 00:07:38;;;;;;;11.93;1.65;;;7.30;99.90;;;;;;6384491;22;20404;-90
2024/04/14 00:10:04;;;;;;;16.17;1.83;;;7.30;99.90;;;;;;6383693;22;20114;-90
2024/04/14 00:12:29;;;;;;;9.05;1.58;;;7.30;99.90;;;;;;6382631;22;19998;-90
2024/04/14 00:14:55;;;;;;;12.23;2.67;;;7.20;99.90;;;;;;6383005;22;19995;-90
2024/04/14 00:17:22;;;;;;;15.60;1.60;;;7.20;99.90;;;;;;6427573;22;20005;-90
2024/04/14 00:19:55;;;;;;;16.63;1.83;;;7.20;99.90;;;;;;6426020;22;20428;-91
2024/04/14 00:22:41;;;;;;;7.63;1.58;;;7.20;99.90;;;;;;6423647;22;19998;-91
2024/04/14 00:25:09;;;;;;;7.28;1.60;;;7.20;99.90;;;;;;6382538;22;19995;-90
2024/04/14 00:27:35;;;;;;;7.40;1.60;;;7.20;99.90;;;;;;6382769;22;19994;-90
2024/04/14 00:30:02;;;;;;;8.45;1.27;;;7.20;99.90;;;;;;6424238;22;20009;-89
2024/04/14 00:32:27;;;;;;;10.82;1.73;;;7.20;99.90;;;;;;6425250;22;19994;-91
2024/04/14 00:34:53;;;;;;;7.40;1.80;;;7.20;99.90;;;;;;6383204;22;20588;-91
2024/04/14 00:37:19;;;;;;;13.95;1.67;;;7.20;99.90;;;;;;6383870;22;19998;-90
2024/04/14 00:39:45;;;;;;;15.13;1.90;;;7.10;99.90;;;;;;6382466;22;20013;-91
2024/04/14 00:42:10;;;;;;;10.38;1.67;;;7.10;99.90;;;;;;6383588;22;20328;-90
2024/04/14 00:44:36;;;;;;;8.05;1.45;;;7.10;99.90;;;;;;6383932;22;20001;-91
2024/04/14 00:47:02;;;;;;;11.57;2.22;;;7.10;99.90;;;;;;6424675;22;20022;-89
2024/04/14 00:49:29;;;;;;;12.95;1.67;;;7.10;99.90;;;;;;6384010;22;19994;-89
2024/04/14 00:51:56;;;;;;;9.98;1.85;;;7.10;99.90;;;;;;6428061;22;19994;-90
2024/04/14 00:54:22;;;;;;;9.18;2.05;;;7.10;99.90;;;;;;6425948;22;20006;-90
2024/04/14 00:56:48;;;;;;;9.48;1.88;;;7.10;99.90;;;;;;6425580;22;20065;-91
2024/04/14 00:59:14;;;;;;;10.35;1.50;;;7.20;99.90;;;;;;6383710;22;19998;-89
2024/04/14 01:01:40;;;;;;;13.68;1.40;;;7.20;99.90;;;;;;6383534;22;20424;-91
2024/04/14 01:04:07;;;;;;;9.70;1.30;;;7.20;99.90;;;;;;6383641;22;20002;-90
2024/04/14 01:06:38;;;;;;;8.73;1.50;;;7.10;99.90;;;;;;6384661;22;19990;-91
2024/04/14 01:09:04;;;;;;;11.05;1.92;;;7.20;99.90;;;;;;6426130;22;20098;-90
2024/04/14 01:11:29;;;;;;;10.50;1.30;;;7.20;99.90;;;;;;6344194;22;20019;-90
2024/04/14 01:14:02;;;;;;;14.43;2.40;;;7.20;99.90;;;;;;6384405;22;19998;-90
2024/04/14 01:16:29;;;;;;;12.23;1.30;;;7.10;99.90;;;;;;6425784;22;19994;-90
2024/04/14 01:18:54;;;;;;;10.43;1.65;;;7.10;99.90;;;;;;6383269;22;20297;-90
2024/04/14 01:21:20;;;;;;;7.43;1.30;;;7.10;99.90;;;;;;6384855;22;20009;-90
2024/04/14 01:23:46;;;;;;;9.68;1.77;;;7.00;99.90;;;;;;6384837;22;20035;-90
2024/04/14 01:26:12;;;;;;;11.75;1.27;;;7.00;99.90;;;;;;6384552;22;20425;-90
2024/04/14 01:28:37;;;;;;;11.45;1.45;;;7.00;99.90;;;;;;6384389;22;20006;-92
2024/04/14 01:31:04;;;;;;;11.15;1.35;;;7.00;99.90;;;;;;6384060;22;19994;-91
2024/04/14 01:33:30;;;;;;;12.35;1.63;;;6.90;99.90;;;;;;6383216;22;19995;-91
2024/04/14 01:35:56;;;;;;;10.18;1.27;;;6.90;99.90;;;;;;6383564;22;20030;-92
2024/04/14 01:38:23;;;;;;;13.70;1.33;;;6.90;99.90;;;;;;6383762;22;19999;-91
2024/04/14 01:40:49;;;;;;;5.35;1.40;;;6.90;99.90;;;;;;6383472;22;19998;-91
2024/04/14 01:43:16;;;;;;;9.20;1.20;;;6.90;99.90;;;;;;6384453;22;19998;-91
2024/04/14 01:45:41;;;;;;;10.00;1.55;;;6.90;99.90;;;;;;6342826;22;20334;-90
2024/04/14 01:48:07;;;;;;;17.33;1.90;;;6.90;99.90;;;;;;6383975;22;20001;-89
2024/04/14 01:50:36;;;;;;;13.02;1.30;;;6.80;99.90;;;;;;6384103;22;20002;-90
2024/04/14 01:53:01;;;;;;;9.88;1.45;;;6.80;99.90;;;;;;6383143;22;19994;-89
2024/04/14 01:55:30;;;;;;;9.15;1.75;;;6.80;99.90;;;;;;6382391;22;20009;-91
2024/04/14 01:57:59;;;;;;;10.07;1.33;;;6.80;99.90;;;;;;6382469;22;20004;-91
2024/04/14 02:00:25;;;;;;;8.88;1.60;;;6.80;99.90;;;;;;6382553;22;20421;-89
2024/04/14 02:02:54;;;;;;;14.10;1.60;;;6.80;99.90;;;;;;6382369;22;20543;-90
2024/04/14 02:05:20;;;;;;;8.88;1.30;;;6.80;99.90;;;;;;6382229;22;20002;-89
2024/04/14 02:07:46;;;;;;;11.15;1.55;;;6.80;99.90;;;;;;6382289;22;20109;-92
2024/04/14 02:10:12;;;;;;;8.18;1.40;;;6.80;99.90;;;;;;6340364;22;20053;-90
2024/04/14 02:12:38;;;;;;;9.77;2.05;;;6.80;99.90;;;;;;6380928;22;20033;-89
2024/04/14 02:15:04;;;;;;;13.07;2.70;;;6.80;99.90;;;;;;6380424;22;20006;-90
2024/04/14 02:17:31;;;;;;;18.80;2.47;;;6.80;99.90;;;;;;6340790;22;20011;-90
2024/04/14 02:19:56;;;;;;;19.45;1.65;;;6.80;99.90;;;;;;6381882;22;20551;-90
2024/04/14 02:22:22;;;;;;;13.95;1.98;;;6.70;99.90;;;;;;6340776;22;19987;-90
2024/04/14 02:24:48;;;;;;;10.80;1.85;;;6.70;99.90;;;;;;6381977;22;20001;-90
2024/04/14 02:27:14;;;;;;;7.72;1.08;;;6.70;99.90;;;;;;6381876;22;19998;-91
2024/04/14 02:29:40;;;;;;;17.15;2.67;;;6.60;99.90;;;;;;6381624;22;20441;-90
2024/04/14 02:32:06;;;;;;;16.90;1.58;;;6.60;99.90;;;;;;6381985;22;19987;-90
2024/04/14 02:34:31;;;;;;;13.98;1.63;;;6.60;99.90;;;;;;6382127;22;19994;-91
2024/04/14 02:36:57;;;;;;;7.03;1.30;;;6.60;99.90;;;;;;6381649;22;19994;-91
2024/04/14 02:39:23;;;;;;;7.68;1.33;;;6.60;99.90;;;;;;6381888;22;19990;-91
2024/04/14 02:41:49;;;;;;;12.25;1.23;;;6.60;99.90;;;;;;6382926;22;19990;-91
2024/04/14 02:44:16;;;;;;;14.52;1.83;;;6.60;99.90;;;;;;6384407;22;20030;-90
2024/04/14 02:46:44;;;;;;;9.05;1.67;;;6.60;99.90;;;;;;6380675;22;19994;-91
2024/04/14 02:49:10;;;;;;;11.82;1.15;;;6.60;99.90;;;;;;6380843;22;20004;-91
2024/04/14 02:51:36;;;;;;;12.45;2.97;;;6.60;99.90;;;;;;6381056;22;19991;-90
2024/04/14 02:54:03;;;;;;;10.38;1.98;;;6.60;99.90;;;;;;6381574;22;19991;-91
2024/04/14 02:56:29;;;;;;;13.35;1.85;;;6.70;99.90;;;;;;6381597;22;20070;-91
2024/04/14 02:58:54;;;;;;;17.63;1.67;;;6.70;99.90;;;;;;6381600;22;20069;-90
2024/04/14 03:01:20;;;;;;;14.73;1.60;;;6.80;99.90;;;;;;6381936;22;20554;-90
2024/04/14 03:03:48;;;;;;;11.52;1.88;;;6.80;99.90;;;;;;6382134;22;20417;-89
2024/04/14 03:06:14;;;;;;;11.35;1.50;;;6.80;99.90;;;;;;6341600;22;19990;-90
2024/04/14 03:08:40;;;;;;;12.07;2.17;;;6.70;99.90;;;;;;6383629;22;19994;-89
2024/04/14 03:11:06;;;;;;;9.73;1.50;;;6.70;99.90;;;;;;6381765;22;19991;-91
2024/04/14 03:13:32;;;;;;;8.57;1.40;;;6.70;99.90;;;;;;6381715;22;20005;-91
2024/04/14 03:16:04;;;;;;;9.23;2.08;;;6.70;99.90;;;;;;6382203;22;19994;-90
2024/04/14 03:18:30;;;;;;;12.68;1.50;;;6.70;99.90;;;;;;6383203;22;19995;-90
2024/04/14 03:21:01;;;;;;;13.18;1.45;;;6.70;99.90;;;;;;6383189;22;19994;-91
2024/04/14 03:23:27;;;;;;;11.15;1.50;;;6.70;99.90;;;;;;6384799;22;19995;-90
2024/04/14 03:25:54;;;;;;;8.07;1.27;;;6.70;99.90;;;;;;6386043;22;20312;-90
2024/04/14 03:28:24;;;;;;;8.15;1.45;;;6.70;99.90;;;;;;6383799;22;20030;-90
2024/04/14 03:30:50;;;;;;;10.13;1.58;;;6.60;99.90;;;;;;6383490;22;20009;-91
2024/04/14 03:33:15;;;;;;;13.55;1.27;;;6.60;99.90;;;;;;6384180;22;20398;-91
2024/04/14 03:35:42;;;;;;;9.45;1.25;;;6.60;99.90;;;;;;6384732;22;20001;-91
2024/04/14 03:38:07;;;;;;;18.25;2.70;;;6.70;99.90;;;;;;6385110;22;20010;-91
2024/04/14 03:40:33;;;;;;;12.32;1.42;;;6.70;99.90;;;;;;6384242;22;20077;-92
2024/04/14 03:42:59;;;;;;;11.02;1.67;;;6.70;99.90;;;;;;6384951;22;19998;-91
2024/04/14 03:45:24;;;;;;;14.57;2.33;;;6.70;99.90;;;;;;6385309;22;20009;-91
2024/04/14 03:47:53;;;;;;;7.05;1.27;;;6.60;99.90;;;;;;6384799;22;19998;-92
2024/04/14 03:50:19;;;;;;;11.15;1.60;;;6.60;99.90;;;;;;6425346;22;19999;-93
2024/04/14 03:52:45;;;;;;;12.82;1.77;;;6.60;99.90;;;;;;6384920;22;19998;-92
2024/04/14 03:55:11;;;;;;;7.00;1.25;;;6.70;99.90;;;;;;6385283;22;19998;-91
2024/04/14 03:57:37;;;;;;;8.68;1.23;;;6.60;99.90;;;;;;6385118;22;20006;-90
2024/04/14 04:00:04;;;;;;;8.35;2.38;;;6.70;99.90;;;;;;6384761;22;20073;-90
2024/04/14 04:02:29;;;;;;;13.32;1.63;;;6.60;99.90;;;;;;6426748;22;20064;-91
2024/04/14 04:04:55;;;;;;;19.48;2.42;;;6.60;99.90;;;;;;6384058;22;20006;-92
2024/04/14 04:07:21;;;;;;;10.32;1.48;;;6.70;99.90;;;;;;6384890;22;20021;-90
2024/04/14 04:09:46;;;;;;;11.60;1.83;;;6.60;99.90;;;;;;6384025;22;20066;-90
2024/04/14 04:12:12;;;;;;;11.55;1.80;;;6.60;99.90;;;;;;6383258;22;19994;-90
2024/04/14 04:14:37;;;;;;;13.20;1.60;;;6.70;99.90;;;;;;6384378;22;20006;-90
2024/04/14 04:17:03;;;;;;;10.55;1.48;;;6.60;99.90;;;;;;6384414;22;19994;-90
2024/04/14 04:19:29;;;;;;;10.77;1.77;;;6.60;99.90;;;;;;6384879;22;20286;-91
2024/04/14 04:21:54;;;;;;;16.92;2.17;;;6.60;99.90;;;;;;6384234;22;20006;-91
2024/04/14 04:24:20;;;;;;;15.18;1.50;;;6.60;99.90;;;;;;6383691;22;19998;-90
2024/04/14 04:26:46;;;;;;;11.38;1.48;;;6.60;99.90;;;;;;6383114;22;19998;-90
2024/04/14 04:29:12;;;;;;;9.98;1.90;;;6.60;99.90;;;;;;6382949;22;20133;-90
2024/04/14 04:31:37;;;;;;;17.00;1.65;;;6.60;99.90;;;;;;6383277;22;19998;-90
2024/04/14 04:34:03;;;;;;;12.63;1.98;;;6.60;99.90;;;;;;6384750;22;19995;-91
2024/04/14 04:36:29;;;;;;;11.85;1.52;;;6.60;99.90;;;;;;6384366;22;20453;-90
2024/04/14 04:39:01;;;;;;;10.13;1.15;;;6.60;99.90;;;;;;6384764;22;20405;-91
2024/04/14 04:41:26;;;;;;;4.68;1.60;;;6.60;99.90;;;;;;6384064;22;19998;-91
2024/04/14 04:43:52;;;;;;;14.15;2.10;;;6.60;99.90;;;;;;6384241;22;20002;-90
2024/04/14 04:46:18;;;;;;;12.13;1.77;;;6.60;99.90;;;;;;6385369;22;20010;-91
2024/04/14 04:48:44;;;;;;;7.07;2.13;;;6.60;99.90;;;;;;6387192;22;20102;-90
2024/04/14 04:51:09;;;;;;;11.38;2.03;;;6.60;99.90;;;;;;6384155;22;20010;-91
2024/04/14 04:53:35;;;;;;;14.88;1.58;;;6.60;99.90;;;;;;6385437;22;20397;-93
2024/04/14 04:56:01;;;;;;;8.57;1.50;;;6.50;99.90;;;;;;6386316;22;20003;-90
2024/04/14 04:58:26;;;;;;;11.57;1.65;;;6.60;99.90;;;;;;6384022;22;19994;-90
2024/04/14 05:00:56;;;;;;;10.25;1.45;;;6.50;99.90;;;;;;6384012;22;20425;-91
2024/04/14 05:03:22;;;;;;;12.93;2.40;;;6.60;99.90;;;;;;6426152;22;19994;-91
2024/04/14 05:05:58;;;;;;;9.65;1.67;;;6.60;99.90;;;;;;6425929;22;20070;-92
2024/04/14 05:08:25;;;;;;;12.60;2.50;;;6.50;99.90;;;;;;6425896;22;20322;-91
2024/04/14 05:10:55;;;;;;;9.32;1.58;;;6.50;99.90;;;;;;6425864;22;19998;-91
2024/04/14 05:13:21;;;;;;;14.13;1.88;;;6.60;99.90;;;;;;6425703;22;19995;-91
2024/04/14 05:15:47;;;;;;;15.77;2.10;;;6.50;99.90;;;;;;6426063;22;19994;-91
2024/04/14 05:18:13;;;;;;;8.60;1.13;;;6.50;99.90;;;;;;6384493;22;19995;-91
2024/04/14 05:20:39;;;;;;;8.05;1.30;;;6.60;99.90;;;;;;6385056;22;20006;-91
2024/04/14 05:23:05;;;;;;;13.38;1.55;;;6.50;99.90;;;;;;6386328;22;20005;-91
2024/04/14 05:25:31;;;;;;;16.63;1.95;;;6.50;99.90;;;;;;6389165;22;20337;-90
2024/04/14 05:27:57;;;;;;;10.50;1.70;;;6.50;99.90;;;;;;6388688;22;19991;-91
2024/04/14 05:30:23;;;;;;;19.48;1.95;;;6.50;99.90;;;;;;6386128;22;20006;-92
2024/04/14 05:32:51;;;;;;;14.95;2.22;;;6.50;99.90;;;;;;6389079;22;20006;-91
2024/04/14 05:35:17;;;;;;;11.75;2.28;;;6.50;99.90;;;;;;6429859;22;19998;-91
2024/04/14 05:37:42;;;;;;;9.77;1.52;;;6.50;99.90;;;;;;6385977;22;20081;-91
2024/04/14 05:40:08;;;;;;;9.38;1.50;;;6.50;99.90;;;;;;6385188;22;20339;-90
2024/04/14 05:42:34;;;;;;;11.27;1.30;;;6.50;99.90;;;;;;6384272;22;20019;-91
2024/04/14 05:45:00;;;;;;;13.52;1.52;;;6.50;99.90;;;;;;6384585;22;20005;-92
2024/04/14 05:47:25;;;;;;;10.05;1.30;;;6.50;99.90;;;;;;6384287;22;19998;-92
2024/04/14 05:49:51;;;;;;;11.80;2.20;;;6.50;99.90;;;;;;6382662;22;20009;-90
2024/04/14 05:52:17;;;;;;;9.77;1.58;;;6.50;99.90;;;;;;6383971;22;20013;-90
2024/04/14 05:54:43;;;;;;;10.40;1.30;;;6.50;99.90;;;;;;6383804;22;20409;-91
2024/04/14 05:57:08;;;;;;;12.23;1.45;;;6.50;99.90;;;;;;6384172;22;20544;-90
2024/04/14 05:59:34;;;;;;;11.05;1.83;;;6.50;99.90;;;;;;6383686;22;19998;-90
2024/04/14 06:02:00;;;;;;;9.50;1.33;;;6.50;99.90;;;;;;6383573;22;19994;-90
2024/04/14 06:04:25;;;;;;;9.45;1.70;;;6.50;99.90;;;;;;6383979;22;20009;-91
2024/04/14 06:06:51;;;;;;;7.00;1.48;;;6.50;99.90;;;;;;6427063;22;20002;-91
2024/04/14 06:09:17;;;;;;;19.15;1.85;;;6.50;99.90;;;;;;6383434;22;19999;-91
2024/04/14 06:11:42;;;;;;;9.70;1.45;;;6.50;99.90;;;;;;6383597;22;19998;-90
2024/04/14 06:14:08;;;;;;;16.25;2.67;;;6.50;99.90;;;;;;6383429;22;20003;-90
2024/04/14 06:16:34;;;;;;;13.13;2.15;;;6.50;99.90;;;;;;6383374;22;19995;-90
2024/04/14 06:18:59;;;;;;;9.35;1.10;;;6.50;99.90;;;;;;6383571;22;20102;-90
2024/04/14 06:21:25;;;;;;;8.15;2.05;;;6.50;99.90;;;;;;6383480;22;20002;-91
2024/04/14 06:23:51;;;;;;;13.88;2.03;;;6.60;99.90;;;;;;6383404;22;20005;-91
2024/04/14 06:26:16;;;;;;;14.40;2.05;;;6.60;99.90;;;;;;6382876;22;20005;-91
2024/04/14 06:28:42;;;;;;;7.20;1.35;;;6.60;99.90;;;;;;6383661;22;20005;-90
2024/04/14 06:31:08;;;;;;;10.88;1.50;;;6.70;99.90;;;;;;6383592;22;20009;-91
2024/04/14 06:33:34;;;;;;;8.77;1.20;;;6.70;99.90;;;;;;6383441;22;19998;-89
2024/04/14 06:35:59;;;;;;;9.68;1.95;;;6.70;99.90;;;;;;6384298;22;20002;-90
2024/04/14 06:38:25;;;;;;;12.65;2.05;;;6.70;99.90;;;;;;6385551;22;19995;-90
2024/04/14 06:40:51;;;;;;;6.35;1.30;;;6.80;99.90;;;;;;6384845;22;20524;-90
2024/04/14 06:43:16;;;;;;;18.50;3.30;;;6.80;99.90;;;;;;6384600;22;19998;-90
2024/04/14 06:45:45;;;;;;;12.77;1.50;;;6.80;99.90;;;;;;6384909;22;20274;-90
2024/04/14 06:48:11;;;;;;;13.15;1.75;;;6.80;99.90;;;;;;6425096;22;20006;-91
2024/04/14 06:50:36;;;;;;;11.25;1.70;;;6.80;99.90;;;;;;6383715;22;20003;-90
2024/04/14 06:53:02;;;;;;;9.02;1.52;;;6.90;99.90;;;;;;6383359;22;19998;-90
2024/04/14 06:55:28;;;;;;;13.88;1.55;;;6.90;99.90;;;;;;6383428;22;20050;-91
2024/04/14 06:57:54;;;;;;;15.85;2.03;;;6.90;99.90;;;;;;6383360;22;20011;-91
2024/04/14 07:00:20;;;;;;;10.43;1.73;;;7.00;99.90;;;;;;6386824;22;20010;-90
2024/04/14 07:02:45;;;;;;;13.68;1.88;;;7.00;99.90;;;;;;6384269;22;20002;-90
2024/04/14 07:05:11;;;;;;;7.85;1.60;;;7.00;99.90;;;;;;6384595;22;19998;-90
2024/04/14 07:07:38;;;;;;;12.55;1.63;;;7.00;99.90;;;;;;6384638;22;20006;-91
2024/04/14 07:10:04;;;;;;;10.10;1.30;;;7.10;99.90;;;;;;6384669;22;19994;-91
2024/04/14 07:12:30;;;;;;;10.80;2.00;;;7.10;99.90;;;;;;6426307;22;20006;-88
2024/04/14 07:14:56;;;;;;;15.60;2.10;;;7.10;99.90;;;;;;6384893;22;19994;-91
2024/04/14 07:17:22;;;;;;;12.63;1.52;;;7.20;99.90;;;;;;6385590;22;20006;-91
2024/04/14 07:19:47;;;;;;;13.13;2.03;;;7.20;99.90;;;;;;6386844;22;20066;-90
2024/04/14 07:22:13;;;;;;;21.30;2.65;;;7.20;99.90;;;;;;6385947;22;20406;-90
2024/04/14 07:24:39;;;;;;;25.60;3.53;;;7.30;99.90;;;;;;6384668;22;19994;-90
2024/04/14 07:27:06;;;;;;;8.32;2.10;;;7.30;99.90;;;;;;6390782;22;19998;-90
2024/04/14 07:29:33;;;;;;;14.45;2.35;;;7.30;99.90;;;;;;6392610;22;20022;-89
2024/04/14 07:31:58;;;;;;;19.55;2.70;;;7.40;99.90;;;;;;6431636;22;19999;-91
2024/04/14 07:34:24;;;;;;;18.73;1.90;;;7.50;99.90;;;;;;6385537;22;20001;-90
2024/04/14 07:36:50;;;;;;;11.73;1.55;;;7.50;99.90;;;;;;6384781;22;19995;-90
2024/04/14 07:39:15;;;;;;;13.40;2.75;;;7.60;99.90;;;;;;6386320;22;20064;-90
2024/04/14 07:41:42;;;;;;;15.20;2.13;;;7.60;99.90;;;;;;6387687;22;20002;-91
2024/04/14 07:44:08;;;;;;;13.70;2.30;;;7.70;99.90;;;;;;6389241;22;19998;-92
2024/04/14 07:46:33;;;;;;;11.05;2.20;;;7.70;99.90;;;;;;6386365;22;20334;-92
2024/04/14 07:48:59;;;;;;;21.30;3.15;;;7.80;99.90;;;;;;6386413;22;19995;-90
2024/04/14 07:51:25;;;;;;;8.63;2.20;;;7.80;99.90;;;;;;6385574;22;20069;-91
2024/04/14 07:53:56;;;;;;;13.77;2.67;;;7.90;99.90;;;;;;6386439;22;20002;-91
2024/04/14 07:56:22;;;;;;;15.75;3.08;;;7.90;99.90;;;;;;6386263;22;20022;-92
2024/04/14 07:58:49;;;;;;;25.10;5.15;;;8.00;99.90;;;;;;6385553;22;20005;-93
2024/04/14 08:01:17;;;;;;;11.88;2.83;;;7.90;99.90;;;;;;6428744;22;20006;-91
2024/04/14 08:03:44;;;;;;;18.30;3.70;;;8.00;99.90;;;;;;6427474;22;20002;-91
2024/04/14 08:06:10;;;;;;;19.55;2.42;;;8.10;99.90;;;;;;6385773;22;20001;-92
2024/04/14 08:08:36;;;;;;;14.38;2.85;;;8.10;99.90;;;;;;6385771;22;19995;-92
2024/04/14 08:11:07;;;;;;;8.95;1.83;;;8.20;99.90;;;;;;6384361;22;20009;-92
2024/04/14 08:13:32;;;;;;;17.35;2.60;;;8.30;99.90;;;;;;6386289;22;19995;-92
2024/04/14 08:16:01;;;;;;;18.38;2.97;;;8.40;99.90;;;;;;6385966;22;20009;-91
2024/04/14 08:18:27;;;;;;;14.02;2.03;;;8.40;99.90;;;;;;6427204;22;20002;-90
2024/04/14 08:20:59;;;;;;;7.10;1.75;;;8.50;99.90;;;;;;6386484;22;20006;-91
2024/04/14 08:23:25;;;;;;;14.70;2.42;;;8.50;99.90;;;;;;6428101;22;20006;-91
2024/04/14 08:25:51;;;;;;;15.55;2.10;;;8.60;99.90;;;;;;6427643;22;20043;-91
2024/04/14 08:28:17;;;;;;;20.45;2.85;;;8.60;99.90;;;;;;6386308;22;19995;-91
2024/04/14 08:30:42;;;;;;;13.57;2.08;;;8.60;99.90;;;;;;6386728;22;19995;-91
2024/04/14 08:33:08;;;;;;;19.13;2.25;;;8.60;99.90;;;;;;6393427;22;19998;-92
2024/04/14 08:35:34;;;;;;;12.15;1.65;;;8.70;99.90;;;;;;6394966;22;20003;-91
2024/04/14 08:38:00;;;;;;;23.63;2.63;;;8.70;99.90;;;;;;6385762;22;19999;-91
2024/04/14 08:40:25;;;;;;;12.68;2.22;;;8.90;99.90;;;;;;6384298;22;20074;-90
2024/04/14 08:42:52;;;;;;;11.70;2.35;;;8.90;99.90;;;;;;6385142;22;20002;-91
2024/04/14 08:45:22;;;;;;;16.63;2.75;;;9.00;99.90;;;;;;6385085;22;20034;-92
2024/04/14 08:47:53;;;;;;;13.63;2.25;;;9.10;99.90;;;;;;6425799;22;19991;-92
2024/04/14 08:50:22;;;;;;;15.85;2.25;;;9.20;99.90;;;;;;6386081;22;19995;-91
2024/04/14 08:52:48;;;;;;;13.43;2.35;;;9.30;99.90;;;;;;6385121;22;20005;-93
2024/04/14 08:55:15;;;;;;;15.15;2.38;;;9.40;99.90;;;;;;6387751;22;19990;-90
2024/04/14 08:57:41;;;;;;;14.88;2.45;;;9.40;99.90;;;;;;6386344;22;19994;-91
2024/04/14 09:00:18;;;;;;;14.43;2.80;;;9.40;99.90;;;;;;6384922;22;19987;-91
2024/04/14 09:02:45;;;;;;;17.80;3.22;;;9.50;99.90;;;;;;6385449;22;20001;-92
2024/04/14 09:05:12;;;;;;;17.85;2.25;;;9.60;99.90;;;;;;6344588;22;20006;-92
2024/04/14 09:07:39;;;;;;;16.80;2.33;;;9.70;99.90;;;;;;6383195;22;20002;-91
2024/04/14 09:10:06;;;;;;;18.85;2.83;;;9.80;99.90;;;;;;6384421;22;19994;-91
2024/04/14 09:12:32;;;;;;;12.88;2.50;;;9.90;99.90;;;;;;6342750;22;19999;-90
2024/04/14 09:19:00;;;;;;;18.35;2.38;;;10.30;99.90;;;;;;6185704;23;20000;-92
2024/04/14 09:21:27;;;;;;;12.10;2.55;;;10.40;99.90;;;;;;6145605;23;20395;-90
2024/04/14 09:23:52;;;;;;;13.95;1.85;;;10.50;99.90;;;;;;6144620;23;19993;-89
2024/04/14 09:26:18;;;;;;;19.25;2.50;;;10.60;99.90;;;;;;6183135;23;20065;-91
2024/04/14 09:29:18;;;;;;;14.38;2.20;;;10.80;99.90;;;;;;6144168;23;19999;-91
2024/04/14 09:31:43;;;;;;;15.73;2.08;;;11.10;99.90;;;;;;6143675;23;20003;-92
2024/04/14 09:34:09;;;;;;;12.25;1.65;;;11.20;99.90;;;;;;6143562;23;20066;-90
2024/04/14 09:36:37;;;;;;;12.07;2.38;;;11.20;99.90;;;;;;6143873;23;19998;-90
2024/04/14 09:39:05;;;;;;;17.88;2.30;;;11.20;99.90;;;;;;6183271;23;20041;-90
2024/04/14 09:41:32;;;;;;;15.05;2.30;;;11.30;99.90;;;;;;6182414;23;20017;-91
2024/04/14 09:43:58;;;;;;;8.82;1.98;;;11.30;99.90;;;;;;6147491;23;20453;-92
2024/04/14 09:46:25;;;;;;;14.85;2.10;;;11.30;99.90;;;;;;6143852;23;19993;-91
2024/04/14 09:48:53;;;;;;;11.48;2.55;;;11.30;99.90;;;;;;6143373;23;20098;-91
2024/04/14 09:51:20;;;;;;;13.63;1.90;;;11.30;99.90;;;;;;6165701;22;19994;-91
2024/04/14 09:53:49;;;;;;;15.15;1.92;;;11.30;99.90;;;;;;6383708;22;20064;-92
2024/04/14 09:56:16;;;;;;;11.15;2.25;;;11.50;99.90;;;;;;6383929;22;20294;-91
2024/04/14 09:58:42;;;;;;;19.50;3.10;;;11.60;99.90;;;;;;6383501;22;20001;-93
2024/04/14 10:01:12;;;;;;;11.18;2.15;;;11.60;99.90;;;;;;6384367;22;20334;-91
2024/04/14 10:03:39;;;;;;;12.93;2.72;;;11.80;99.90;;;;;;6343899;22;20004;-92
2024/04/14 10:06:07;;;;;;;10.60;1.95;;;11.90;99.90;;;;;;6381676;22;19994;-93
2024/04/14 10:08:33;;;;;;;12.80;2.40;;;12.00;99.00;;;;;;6383624;22;20001;-91
2024/04/14 10:11:03;;;;;;;12.85;1.98;;;12.10;98.90;;;;;;6383733;22;20289;-91
2024/04/14 10:13:29;;;;;;;8.48;2.40;;;12.40;98.50;;;;;;6383976;22;19998;-91
2024/04/14 10:15:58;;;;;;;13.80;2.90;;;12.50;97.50;;;;;;6384689;22;20061;-91
2024/04/14 10:18:25;;;;;;;18.70;2.38;;;12.50;96.40;;;;;;6384101;22;19995;-91
2024/04/14 10:20:55;;;;;;;8.98;2.17;;;12.40;94.00;;;;;;6380862;22;20066;-91
2024/04/14 10:23:21;;;;;;;11.57;2.50;;;12.40;94.10;;;;;;6383635;22;19994;-92
2024/04/14 10:25:48;;;;;;;5.10;1.70;;;12.40;93.60;;;;;;6386482;22;20097;-91
2024/04/14 10:28:22;;;;;;;13.63;2.70;;;12.20;92.70;;;;;;6386029;22;20002;-92
2024/04/14 10:31:00;;;;;;;11.98;2.85;;;12.10;92.90;;;;;;6386420;22;19995;-92
2024/04/14 10:33:25;;;;;;;13.40;3.00;;;12.10;93.30;;;;;;6383454;22;20050;-91
2024/04/14 10:36:03;;;;;;;10.90;2.55;;;12.10;93.50;;;;;;6427958;22;20380;-89
2024/04/14 10:38:34;;;;;;;14.00;3.25;;;12.10;93.20;;;;;;6383796;22;19995;-91
2024/04/14 10:41:00;;;;;;;;;;;12.20;93.10;;;;;;6384584;22;19995;-91
2024/04/14 10:43:26;;;;;;;9.63;2.55;;;12.30;92.50;;;;;;6383611;22;19965;-92
2024/04/14 10:45:52;;;;;;;8.65;2.00;;;12.30;92.30;;;;;;6384011;22;19994;-92
2024/04/14 10:48:18;;;;;;;8.90;1.83;;;12.30;91.70;;;;;;6382864;22;19990;-92
2024/04/14 10:50:45;;;;;;;8.52;2.10;;;12.20;91.20;;;;;;6385617;22;19991;-92
2024/04/14 10:53:10;;;;;;;7.45;2.30;;;12.10;90.80;;;;;;6384011;22;19995;-91
2024/04/14 10:55:36;;;;;;;6.80;1.98;;;12.30;91.00;;;;;;6383655;22;19997;-90
2024/04/14 10:58:02;;;;;;;13.10;2.47;;;12.60;90.80;;;;;;6341045;22;19998;-90
2024/04/14 11:00:29;;;;;;;14.68;1.73;;;12.90;89.40;;;;;;6384929;22;20008;-91
2024/04/14 11:02:55;;;;;;;5.78;1.70;;;13.10;88.40;;;;;;6342016;22;19994;-90
2024/04/14 11:05:22;;;;;;;6.75;1.55;;;13.30;88.40;;;;;;6384109;22;20011;-91
2024/04/14 11:07:49;;;;;;;13.60;2.17;;;13.40;87.20;;;;;;6384102;22;20019;-92
2024/04/14 11:10:16;;;;;;;10.77;1.80;;;13.30;86.40;;;;;;6384761;22;20041;-90
2024/04/14 11:12:45;;;;;;;8.68;1.80;;;13.20;86.20;;;;;;6384508;22;19994;-90
2024/04/14 11:15:14;;;;;;;7.22;1.63;;;13.20;86.30;;;;;;6382394;22;19991;-92
2024/04/14 11:17:41;;;;;;;10.60;2.30;;;13.20;86.30;;;;;;6384069;22;20011;-91
2024/04/14 11:20:14;;;;;;;5.95;1.20;;;13.20;85.90;;;;;;6388184;22;19998;-89
2024/04/14 11:22:39;;;;;;;10.82;1.92;;;13.30;85.90;;;;;;6435392;22;20492;-91
2024/04/14 11:25:07;;;;;;;5.30;1.25;;;13.40;85.40;;;;;;6398365;22;20006;-91
2024/04/14 11:27:36;;;;;;;5.13;1.27;;;13.60;85.20;;;;;;6356936;22;19999;-91
2024/04/14 11:30:02;;;;;;;8.32;1.50;;;13.80;83.80;;;;;;6398545;22;20002;-90
2024/04/14 11:32:33;;;;;;;12.35;1.60;;;14.00;82.90;;;;;;6383472;22;20508;-91
2024/04/14 11:35:05;;;;;;;4.20;0.80;;;14.20;82.50;;;;;;6383091;22;19998;-90
2024/04/14 11:37:31;;;;;;;5.90;1.58;;;14.30;80.40;;;;;;6383145;22;20026;-92
2024/04/14 11:39:58;;;;;;;10.70;1.50;;;14.40;79.30;;;;;;6383397;22;20760;-90
2024/04/14 11:42:27;;;;;;;4.53;0.90;;;14.40;79.00;;;;;;6383491;22;20405;-91
2024/04/14 11:44:53;;;;;;;8.57;1.13;;;14.30;77.90;;;;;;6384849;22;19994;-90
2024/04/14 11:47:19;;;;;;;6.75;1.40;;;14.30;78.10;;;;;;6385046;22;20027;-91
2024/04/14 11:49:45;;;;;;;5.65;1.10;;;14.40;78.40;;;;;;6385082;22;20009;-92
2024/04/14 11:52:10;;;;;;;11.65;1.45;;;14.60;78.40;;;;;;6385548;22;19994;-90
2024/04/14 11:54:36;;;;;;;7.00;0.98;;;14.80;77.70;;;;;;6386310;22;19999;-91
2024/04/14 11:57:03;;;;;;;4.78;1.17;;;14.80;76.10;;;;;;6389774;22;20017;-91
2024/04/14 11:59:29;;;;;;;3.75;1.20;;;14.70;75.00;;;;;;6429322;22;20306;-91
2024/04/14 12:01:55;;;;;;;3.80;1.10;;;14.50;74.60;;;;;;6386762;22;20082;-90
2024/04/14 12:04:22;;;;;;;2.72;0.63;;;14.30;74.50;;;;;;6427969;22;19995;-90
2024/04/14 12:06:47;;;;;;;6.00;1.02;;;14.30;75.20;;;;;;6391043;22;20428;-90
2024/04/14 12:09:16;;;;;;;5.38;1.17;;;14.30;75.60;;;;;;6393621;22;19994;-91
2024/04/14 12:11:42;;;;;;;9.35;1.88;;;14.50;75.70;;;;;;6434308;22;20015;-91
2024/04/14 12:14:08;;;;;;;6.45;1.35;;;14.50;74.50;;;;;;6311224;22;19999;-92
2024/04/14 12:16:35;;;;;;;7.65;1.35;;;14.40;74.00;;;;;;6389055;22;20286;-91
2024/04/14 12:19:02;;;;;;;7.13;1.25;;;14.30;74.70;;;;;;6388988;22;20006;-92
2024/04/14 12:21:27;;;;;;;10.35;1.30;;;14.10;74.70;;;;;;6347667;22;19994;-93
2024/04/14 12:23:53;;;;;;;10.95;1.77;;;13.90;74.90;;;;;;6431590;22;20002;-91
2024/04/14 12:26:20;;;;;;;4.88;1.00;;;13.80;75.20;;;;;;6387299;22;20006;-90
2024/04/14 12:28:46;;;;;;;8.20;1.63;;;13.70;75.50;;;;;;6386550;22;20005;-91
2024/04/14 12:31:12;;;;;;;5.60;1.50;;;13.70;75.90;;;;;;6386323;22;20062;-91
2024/04/14 12:33:40;;;;;;;4.97;1.10;;;13.70;75.50;;;;;;6346413;22;20003;-91
2024/04/14 12:36:12;;;;;;;12.20;1.85;;;13.70;75.60;;;;;;6347231;22;19995;-91
2024/04/14 12:38:38;;;;;;;5.20;1.20;;;13.60;75.20;;;;;;6430799;22;20034;-91
2024/04/14 12:41:04;;;;;;;6.05;1.42;;;13.60;75.40;;;;;;6387219;22;19999;-90
2024/04/14 12:43:32;;;;;;;6.30;1.10;;;13.60;75.80;;;;;;6386052;22;20009;-91
2024/04/14 12:45:58;;;;;;;8.75;1.23;;;13.60;75.80;;;;;;6385032;22;19999;-91
2024/04/14 12:48:27;;;;;;;12.88;1.67;;;13.50;75.80;;;;;;6386040;22;20427;-91